createdAt,value
2018-03-26T00:01:59.769Z,11.00
2018-03-26T00:04:03.712Z,10.83
2018-03-26T00:06:06.889Z,11.05
2018-03-26T00:08:10.831Z,10.90
2018-03-26T00:10:14.781Z,10.82
2018-03-26T00:12:17.924Z,10.73
2018-03-26T00:14:21.096Z,11.50
2018-03-26T00:16:24.924Z,12.53
2018-03-26T00:18:28.073Z,12.03
2018-03-26T00:20:31.221Z,11.90
2018-03-26T00:22:34.402Z,11.63
2018-03-26T00:24:37.579Z,11.60
2018-03-26T00:26:40.747Z,11.33
2018-03-26T00:28:43.929Z,11.07
2018-03-26T00:30:47.844Z,12.03
2018-03-26T00:32:52.512Z,12.00
2018-03-26T00:34:56.444Z,9.95
2018-03-26T00:36:59.609Z,11.80
2018-03-26T00:39:05.016Z,14.25
2018-03-26T00:41:08.200Z,11.57
2018-03-26T00:43:12.106Z,11.97
2018-03-26T00:45:15.283Z,11.65
2018-03-26T00:47:18.437Z,12.43
2018-03-26T00:49:22.375Z,11.10
2018-03-26T00:51:26.309Z,12.33
2018-03-26T00:53:44.479Z,12.43
2018-03-26T00:55:47.910Z,12.00
2018-03-26T00:57:51.065Z,13.10
2018-03-26T00:59:54.985Z,12.77
2018-03-26T01:01:58.938Z,12.23
2018-03-26T01:04:02.084Z,13.20
2018-03-26T01:06:05.234Z,12.70
2018-03-26T01:08:09.213Z,12.87
2018-03-26T01:10:12.363Z,13.20
2018-03-26T01:12:16.308Z,11.90
2018-03-26T01:14:19.475Z,12.40
2018-03-26T01:16:22.624Z,13.83
2018-03-26T01:18:25.809Z,12.27
2018-03-26T01:20:28.952Z,12.82
2018-03-26T01:22:32.130Z,12.40
2018-03-26T01:24:36.600Z,12.30
2018-03-26T01:26:39.768Z,12.00
2018-03-26T01:28:44.811Z,11.70
2018-03-26T01:30:47.966Z,13.33
2018-03-26T01:32:51.149Z,12.20
2018-03-26T01:34:55.100Z,11.47
2018-03-26T01:36:58.265Z,12.20
2018-03-26T01:39:01.440Z,11.80
2018-03-26T01:41:06.835Z,11.45
2018-03-26T01:43:11.316Z,12.20
2018-03-26T01:45:14.776Z,11.73
2018-03-26T01:47:20.723Z,12.35
2018-03-26T01:49:25.575Z,13.07
2018-03-26T01:51:28.757Z,12.00
2018-03-26T01:53:31.908Z,12.55
2018-03-26T01:55:36.634Z,12.80
2018-03-26T01:57:40.036Z,12.43
2018-03-26T01:59:44.936Z,12.67
2018-03-26T02:01:48.985Z,12.33
2018-03-26T02:03:52.165Z,12.63
2018-03-26T02:05:56.195Z,13.13
2018-03-26T02:08:00.130Z,12.60
2018-03-26T02:10:05.131Z,12.27
2018-03-26T02:12:08.544Z,13.03
2018-03-26T02:14:11.742Z,13.03
2018-03-26T02:16:14.920Z,12.53
2018-03-26T02:18:18.102Z,12.50
2018-03-26T02:20:22.020Z,13.10
2018-03-26T02:22:26.296Z,12.93
2018-03-26T02:24:29.476Z,12.27
2018-03-26T02:26:33.442Z,12.57
2018-03-26T02:28:36.593Z,12.48
2018-03-26T02:30:39.767Z,12.67
2018-03-26T02:32:42.945Z,11.43
2018-03-26T02:34:47.470Z,12.73
2018-03-26T02:36:51.421Z,12.37
2018-03-26T02:38:54.600Z,12.63
2018-03-26T02:40:58.504Z,12.77
2018-03-26T02:43:01.685Z,12.53
2018-03-26T02:45:05.140Z,12.93
2018-03-26T02:47:09.089Z,12.50
2018-03-26T02:49:12.274Z,14.00
2018-03-26T02:51:16.198Z,12.27
2018-03-26T02:53:20.161Z,12.57
2018-03-26T02:55:23.305Z,13.27
2018-03-26T02:57:27.196Z,13.25
2018-03-26T02:59:30.612Z,13.93
2018-03-26T03:01:33.762Z,13.63
2018-03-26T03:03:37.680Z,13.17
2018-03-26T03:05:40.855Z,13.50
2018-03-26T03:07:44.036Z,13.50
2018-03-26T03:09:47.565Z,13.20
2018-03-26T03:11:50.745Z,14.20
2018-03-26T03:13:54.657Z,12.98
2018-03-26T03:15:57.892Z,12.90
2018-03-26T03:18:02.137Z,13.17
2018-03-26T03:20:05.281Z,12.15
2018-03-26T03:22:08.449Z,13.03
2018-03-26T03:24:11.624Z,12.60
2018-03-26T03:26:14.766Z,12.27
2018-03-26T03:28:17.912Z,13.32
2018-03-26T03:30:21.098Z,12.75
2018-03-26T03:32:24.241Z,11.98
2018-03-26T03:34:28.345Z,12.77
2018-03-26T03:36:31.494Z,12.33
2018-03-26T03:38:34.655Z,12.80
2018-03-26T03:40:37.834Z,11.90
2018-03-26T03:42:41.013Z,12.90
2018-03-26T03:44:45.670Z,12.75
2018-03-26T03:46:49.616Z,13.13
2018-03-26T03:48:52.765Z,13.30
2018-03-26T03:50:55.977Z,13.33
2018-03-26T03:52:59.133Z,12.80
2018-03-26T03:55:03.047Z,12.67
2018-03-26T03:57:07.595Z,13.35
2018-03-26T03:59:12.618Z,12.80
2018-03-26T04:01:16.992Z,11.65
2018-03-26T04:03:20.753Z,13.87
2018-03-26T04:05:24.532Z,12.27
2018-03-26T04:07:28.742Z,12.73
2018-03-26T04:09:33.440Z,13.50
2018-03-26T04:11:37.855Z,13.93
2018-03-26T04:13:41.031Z,14.07
2018-03-26T04:15:45.152Z,14.15
2018-03-26T04:17:49.474Z,13.27
2018-03-26T04:19:52.610Z,12.60
2018-03-26T04:21:56.561Z,12.97
2018-03-26T04:23:59.718Z,13.25
2018-03-26T04:26:02.871Z,13.10
2018-03-26T04:28:06.049Z,13.43
2018-03-26T04:30:09.692Z,13.65
2018-03-26T04:32:12.877Z,13.80
2018-03-26T04:34:16.132Z,12.97
2018-03-26T04:36:19.280Z,13.02
2018-03-26T04:38:22.465Z,12.32
2018-03-26T04:40:25.616Z,12.80
2018-03-26T04:42:30.661Z,13.03
2018-03-26T04:44:34.600Z,13.33
2018-03-26T04:46:37.784Z,13.03
2018-03-26T04:48:42.272Z,12.57
2018-03-26T04:50:46.042Z,12.83
2018-03-26T04:52:51.034Z,13.67
2018-03-26T04:54:54.224Z,14.70
2018-03-26T04:56:58.569Z,13.90
2018-03-26T04:59:03.755Z,13.47
2018-03-26T05:01:07.070Z,14.60
2018-03-26T05:03:10.561Z,16.17
2018-03-26T05:05:14.074Z,13.87
2018-03-26T05:07:19.662Z,13.43
2018-03-26T05:09:25.278Z,14.37
2018-03-26T05:11:30.054Z,14.50
2018-03-26T05:13:35.473Z,15.30
2018-03-26T05:15:41.177Z,15.20
2018-03-26T05:17:45.014Z,16.30
2018-03-26T05:19:48.157Z,14.52
2018-03-26T05:21:51.301Z,14.30
2018-03-26T05:23:54.497Z,15.60
2018-03-26T05:25:59.693Z,15.33
2018-03-26T05:28:05.216Z,15.80
2018-03-26T05:30:08.509Z,16.75
2018-03-26T05:32:11.658Z,15.80
2018-03-26T05:34:14.828Z,18.23
2018-03-26T05:36:18.738Z,18.93
2018-03-26T05:38:21.886Z,20.47
2018-03-26T05:40:25.444Z,19.93
2018-03-26T05:42:30.167Z,19.80
2018-03-26T05:44:34.507Z,17.13
2018-03-26T05:46:38.238Z,16.30
2018-03-26T05:48:41.380Z,15.70
2018-03-26T05:50:45.298Z,17.07
2018-03-26T05:52:49.997Z,17.12
2018-03-26T05:54:53.146Z,18.20
2018-03-26T05:56:56.290Z,17.20
2018-03-26T05:58:59.472Z,17.58
2018-03-26T06:01:03.432Z,18.57
2018-03-26T06:03:07.479Z,19.10
2018-03-26T06:05:11.452Z,17.83
2018-03-26T06:07:16.334Z,18.63
2018-03-26T06:09:20.184Z,17.37
2018-03-26T06:11:24.521Z,17.50
2018-03-26T06:13:28.330Z,18.80
2018-03-26T06:15:33.384Z,19.23
2018-03-26T06:17:36.774Z,18.20
2018-03-26T06:19:39.916Z,18.62
2018-03-26T06:21:43.062Z,18.43
2018-03-26T06:23:47.151Z,18.87
2018-03-26T06:25:50.612Z,18.30
2018-03-26T06:27:54.540Z,19.20
2018-03-26T06:29:58.745Z,17.63
2018-03-26T06:32:01.922Z,18.92
2018-03-26T06:34:05.152Z,19.77
2018-03-26T06:36:08.310Z,21.10
2018-03-26T06:38:17.092Z,21.17
2018-03-26T06:40:20.265Z,21.57
2018-03-26T06:42:50.053Z,21.48
2018-03-26T06:44:55.426Z,19.83
2018-03-26T06:46:58.722Z,20.33
2018-03-26T06:49:02.649Z,21.50
2018-03-26T06:51:06.594Z,22.20
2018-03-26T06:53:11.085Z,23.03
2018-03-26T06:55:16.264Z,22.67
2018-03-26T06:57:19.578Z,23.57
2018-03-26T06:59:23.489Z,22.47
2018-03-26T07:01:26.632Z,24.20
2018-03-26T07:03:29.804Z,22.53
2018-03-26T07:05:32.998Z,24.53
2018-03-26T07:07:36.147Z,23.23
2018-03-26T07:09:39.294Z,24.73
2018-03-26T07:11:43.894Z,24.10
2018-03-26T07:13:47.804Z,23.10
2018-03-26T07:15:51.772Z,24.33
2018-03-26T07:17:54.930Z,24.17
2018-03-26T07:19:58.865Z,25.73
2018-03-26T07:22:02.804Z,25.58
2018-03-26T07:24:05.982Z,24.20
2018-03-26T07:26:09.953Z,25.85
2018-03-26T07:28:13.149Z,25.53
2018-03-26T07:30:16.297Z,26.20
2018-03-26T07:32:19.448Z,26.23
2018-03-26T07:34:22.633Z,24.48
2018-03-26T07:36:25.785Z,24.17
2018-03-26T07:38:28.989Z,25.83
2018-03-26T07:40:32.184Z,25.65
2018-03-26T07:42:36.292Z,27.67
2018-03-26T07:44:40.237Z,25.43
2018-03-26T07:46:44.409Z,25.52
2018-03-26T07:48:47.590Z,24.52
2018-03-26T07:50:50.764Z,26.55
2018-03-26T07:52:53.941Z,25.73
2018-03-26T07:54:57.102Z,25.10
2018-03-26T07:57:01.050Z,25.70
2018-03-26T07:59:04.244Z,24.52
2018-03-26T08:01:07.420Z,26.00
2018-03-26T08:03:12.109Z,23.90
2018-03-26T08:05:15.290Z,26.63
2018-03-26T08:07:19.242Z,25.33
2018-03-26T08:09:22.418Z,28.93
2018-03-26T08:11:26.405Z,24.90
2018-03-26T08:13:29.588Z,25.37
2018-03-26T08:15:32.769Z,26.93
2018-03-26T08:17:36.721Z,28.13
2018-03-26T08:19:39.903Z,28.23
2018-03-26T08:21:43.102Z,28.77
2018-03-26T08:23:47.117Z,23.73
2018-03-26T08:25:50.248Z,23.57
2018-03-26T08:27:54.192Z,22.43
2018-03-26T08:29:57.370Z,20.77
2018-03-26T08:32:04.924Z,21.37
2018-03-26T08:34:08.137Z,17.37
2018-03-26T08:36:11.321Z,14.90
2018-03-26T08:38:14.504Z,14.40
2018-03-26T08:40:18.466Z,12.20
2018-03-26T08:42:21.762Z,11.73
2018-03-26T08:44:24.900Z,12.15
2018-03-26T08:46:28.080Z,12.57
2018-03-26T08:48:31.277Z,11.82
2018-03-26T08:50:35.236Z,11.82
2018-03-26T08:52:38.420Z,10.68
2018-03-26T08:54:42.436Z,14.83
2018-03-26T08:56:46.390Z,8.60
2018-03-26T08:58:49.585Z,9.47
2018-03-26T09:00:52.777Z,8.10
2018-03-26T09:02:56.920Z,8.90
2018-03-26T09:05:01.472Z,8.75
2018-03-26T09:07:04.670Z,9.00
2018-03-26T09:09:07.972Z,6.18
2018-03-26T09:11:11.913Z,6.62
2018-03-26T09:13:15.089Z,6.90
2018-03-26T09:15:18.275Z,7.18
2018-03-26T09:17:21.480Z,7.87
2018-03-26T09:19:24.729Z,5.93
2018-03-26T09:21:28.804Z,7.80
2018-03-26T09:23:31.980Z,6.67
2018-03-26T09:25:35.344Z,6.12
2018-03-26T09:27:38.539Z,5.65
2018-03-26T09:29:42.360Z,5.47
2018-03-26T09:31:46.415Z,6.27
2018-03-26T09:33:49.932Z,6.80
2018-03-26T09:35:54.112Z,5.80
2018-03-26T09:37:57.304Z,5.72
2018-03-26T09:40:00.617Z,6.45
2018-03-26T09:42:05.757Z,6.17
2018-03-26T09:44:09.705Z,6.60
2018-03-26T09:46:12.896Z,5.18
2018-03-26T09:48:16.845Z,5.22
2018-03-26T09:50:20.027Z,6.47
2018-03-26T09:52:23.974Z,4.65
2018-03-26T09:54:28.200Z,5.20
2018-03-26T09:56:31.390Z,4.00
2018-03-26T09:58:35.338Z,3.93
2018-03-26T10:00:44.104Z,4.40
2018-03-26T10:02:47.358Z,3.87
2018-03-26T10:04:51.312Z,4.20
2018-03-26T10:06:54.538Z,5.00
2018-03-26T10:08:57.827Z,4.78
2018-03-26T10:11:01.004Z,4.07
2018-03-26T10:13:05.031Z,3.70
2018-03-26T10:15:08.385Z,2.80
2018-03-26T10:17:11.565Z,3.53
2018-03-26T10:19:15.708Z,5.00
2018-03-26T10:21:18.893Z,5.87
2018-03-26T10:23:22.868Z,6.43
2018-03-26T10:25:26.052Z,6.75
2018-03-26T10:27:29.808Z,7.27
2018-03-26T10:29:34.605Z,6.78
2018-03-26T10:31:38.580Z,6.40
2018-03-26T10:33:41.811Z,5.03
2018-03-26T10:35:44.992Z,4.80
2018-03-26T10:37:48.179Z,4.67
2018-03-26T10:39:51.365Z,4.30
2018-03-26T10:41:55.363Z,5.37
2018-03-26T10:43:58.540Z,4.72
2018-03-26T10:46:01.725Z,4.33
2018-03-26T10:48:04.906Z,4.20
2018-03-26T10:50:08.857Z,4.63
2018-03-26T10:52:12.058Z,4.20
2018-03-26T10:54:16.002Z,3.97
2018-03-26T10:56:19.172Z,3.90
2018-03-26T10:58:22.345Z,4.13
2018-03-26T11:00:25.538Z,4.00
2018-03-26T11:02:28.724Z,3.60
2018-03-26T11:04:31.916Z,1.40
2018-03-26T11:06:35.873Z,1.50
2018-03-26T11:08:39.046Z,2.33
2018-03-26T11:10:43.030Z,2.17
2018-03-26T11:12:46.405Z,1.65
2018-03-26T11:14:49.574Z,1.90
2018-03-26T11:16:52.756Z,2.85
2018-03-26T11:18:55.966Z,3.00
2018-03-26T11:20:59.138Z,2.83
2018-03-26T11:23:02.313Z,3.62
2018-03-26T11:25:05.533Z,2.97
2018-03-26T11:27:09.488Z,3.40
2018-03-26T11:29:12.682Z,3.80
2018-03-26T11:31:16.633Z,3.20
2018-03-26T11:33:19.811Z,4.25
2018-03-26T11:35:23.757Z,3.67
2018-03-26T11:37:27.306Z,3.90
2018-03-26T11:39:30.568Z,3.80
2018-03-26T11:41:33.788Z,4.05
2018-03-26T11:43:36.977Z,3.90
2018-03-26T11:45:40.181Z,13.17
2018-03-26T11:47:44.178Z,14.07
2018-03-26T11:49:47.378Z,26.33
2018-03-26T11:51:50.573Z,6.82
2018-03-26T11:53:53.758Z,4.30
2018-03-26T11:55:56.945Z,3.30
2018-03-26T11:58:00.888Z,3.23
2018-03-26T12:00:04.069Z,2.95
2018-03-26T12:02:07.262Z,2.60
2018-03-26T12:04:10.471Z,2.50
2018-03-26T12:06:14.300Z,2.40
2018-03-26T12:08:17.590Z,2.13
2018-03-26T12:10:20.785Z,2.30
2018-03-26T12:12:23.970Z,2.37
2018-03-26T12:14:27.148Z,2.20
2018-03-26T12:16:31.088Z,2.10
2018-03-26T12:18:35.036Z,2.83
2018-03-26T12:21:00.237Z,2.80
2018-03-26T12:23:21.377Z,2.27
2018-03-26T12:25:24.627Z,1.60
2018-03-26T12:27:27.771Z,1.80
2018-03-26T12:29:49.093Z,2.40
2018-03-26T12:31:52.281Z,1.50
2018-03-26T12:34:15.209Z,1.70
2018-03-26T12:36:18.439Z,1.80
2018-03-26T12:38:22.384Z,1.60
2018-03-26T12:40:43.553Z,1.42
2018-03-26T12:42:46.737Z,1.87
2018-03-26T12:47:37.157Z,3.53
2018-03-26T12:49:40.336Z,6.40
2018-03-26T12:54:32.065Z,2.30
2018-03-26T12:56:37.871Z,1.93
2018-03-26T12:58:49.684Z,3.58
2018-03-26T13:01:10.925Z,6.80
2018-03-26T13:03:14.106Z,5.47
2018-03-26T13:05:18.273Z,2.03
2018-03-26T13:07:21.755Z,1.97
2018-03-26T13:09:25.134Z,1.65
2018-03-26T13:11:29.315Z,4.15
2018-03-26T13:13:32.501Z,2.08
2018-03-26T13:15:35.679Z,1.92
2018-03-26T13:17:38.857Z,1.80
2018-03-26T13:19:42.057Z,1.20
2018-03-26T13:21:45.426Z,1.30
2018-03-26T13:23:49.388Z,2.42
2018-03-26T13:25:52.581Z,1.85
2018-03-26T13:27:55.870Z,1.40
2018-03-26T13:30:00.076Z,1.40
2018-03-26T13:32:03.292Z,1.50
2018-03-26T13:34:06.560Z,1.53
2018-03-26T13:36:09.744Z,1.60
2018-03-26T13:38:12.944Z,1.67
2018-03-26T13:40:16.889Z,1.42
2018-03-26T13:42:20.070Z,1.50
2018-03-26T13:44:24.027Z,1.83
2018-03-26T13:46:27.213Z,1.73
2018-03-26T13:48:31.162Z,1.62
2018-03-26T13:50:34.357Z,1.50
2018-03-26T13:52:37.570Z,1.40
2018-03-26T13:54:41.015Z,1.80
2018-03-26T13:56:44.480Z,3.03
2018-03-26T13:58:47.814Z,2.07
2018-03-26T14:00:51.000Z,2.30
2018-03-26T14:02:54.952Z,2.17
2018-03-26T14:04:58.236Z,2.10
2018-03-26T14:07:02.434Z,2.20
2018-03-26T14:09:23.679Z,2.00
2018-03-26T14:11:44.744Z,1.87
2018-03-26T14:14:05.845Z,2.20
2018-03-26T14:16:26.964Z,2.53
2018-03-26T14:18:30.240Z,1.87
2018-03-26T14:20:34.217Z,1.75
2018-03-26T14:22:37.396Z,1.48
2018-03-26T14:24:40.684Z,1.47
2018-03-26T14:26:44.646Z,1.40
2018-03-26T14:28:48.489Z,1.80
2018-03-26T14:30:51.693Z,2.17
2018-03-26T14:32:54.888Z,1.58
2018-03-26T14:35:16.150Z,1.62
2018-03-26T14:37:20.440Z,1.40
2018-03-26T14:39:23.677Z,1.30
2018-03-26T14:41:28.744Z,1.20
2018-03-26T14:43:32.068Z,1.37
2018-03-26T14:45:36.049Z,1.00
2018-03-26T14:47:39.227Z,1.07
2018-03-26T14:49:42.409Z,0.90
2018-03-26T14:51:45.590Z,1.00
2018-03-26T14:53:48.822Z,1.03
2018-03-26T14:55:52.010Z,1.70
2018-03-26T14:57:55.457Z,1.40
2018-03-26T14:59:58.637Z,1.40
2018-03-26T15:02:01.817Z,1.50
2018-03-26T15:04:05.015Z,1.00
2018-03-26T15:06:08.192Z,1.40
2018-03-26T15:08:11.367Z,1.12
2018-03-26T15:10:14.627Z,1.20
2018-03-26T15:12:18.576Z,2.00
2018-03-26T15:14:22.185Z,1.40
2018-03-26T15:16:31.798Z,1.40
2018-03-26T15:18:35.142Z,1.07
2018-03-26T15:20:38.338Z,1.25
2018-03-26T15:22:42.294Z,1.20
2018-03-26T15:24:45.542Z,1.00
2018-03-26T15:26:48.738Z,1.73
2018-03-26T15:28:52.050Z,1.60
2018-03-26T15:30:56.056Z,1.20
2018-03-26T15:32:59.238Z,1.37
2018-03-26T15:35:03.189Z,1.10
2018-03-26T15:37:06.378Z,1.13
2018-03-26T15:39:10.350Z,1.20
2018-03-26T15:41:13.531Z,0.60
2018-03-26T15:43:16.713Z,0.67
2018-03-26T15:45:19.943Z,0.80
2018-03-26T15:47:23.128Z,0.60
2018-03-26T15:49:27.076Z,0.50
2018-03-26T15:51:30.265Z,0.50
2018-03-26T15:53:34.233Z,0.80
2018-03-26T15:55:37.413Z,0.63
2018-03-26T15:57:40.604Z,0.70
2018-03-26T15:59:44.545Z,0.47
2018-03-26T16:01:47.733Z,0.70
2018-03-26T16:03:51.517Z,0.83
2018-03-26T16:05:54.693Z,0.60
2018-03-26T16:07:57.878Z,0.55
2018-03-26T16:10:02.022Z,0.40
2018-03-26T16:12:05.319Z,0.30
2018-03-26T16:14:10.946Z,0.47
2018-03-26T16:16:15.141Z,0.47
2018-03-26T16:18:18.336Z,1.20
2018-03-26T16:20:21.509Z,0.70
2018-03-26T16:22:24.704Z,0.50
2018-03-26T16:24:27.892Z,0.57
2018-03-26T16:26:32.248Z,0.40
2018-03-26T16:28:35.429Z,0.37
2018-03-26T16:30:38.617Z,0.60
2018-03-26T16:32:41.796Z,0.40
2018-03-26T16:34:45.748Z,0.43
2018-03-26T16:36:48.928Z,0.60
2018-03-26T16:38:52.693Z,0.60
2018-03-26T16:40:55.877Z,0.53
2018-03-26T16:43:05.589Z,0.47
2018-03-26T16:45:08.889Z,0.50
2018-03-26T16:47:12.817Z,0.57
2018-03-26T16:49:15.997Z,0.60
2018-03-26T16:51:19.168Z,0.60
2018-03-26T16:53:22.346Z,0.40
2018-03-26T16:55:26.621Z,0.70
2018-03-26T16:57:30.707Z,0.60
2018-03-26T16:59:34.719Z,0.60
2018-03-26T17:01:38.118Z,0.75
2018-03-26T17:03:41.353Z,0.50
2018-03-26T17:05:44.565Z,0.57
2018-03-26T17:07:47.757Z,1.13
2018-03-26T17:09:50.942Z,0.70
2018-03-26T17:11:54.117Z,0.70
2018-03-26T17:13:58.813Z,0.80
2018-03-26T17:16:02.001Z,0.60
2018-03-26T17:18:05.183Z,0.70
2018-03-26T17:20:09.129Z,0.60
2018-03-26T17:22:14.197Z,0.70
2018-03-26T17:24:17.389Z,0.73
2018-03-26T17:26:21.327Z,0.50
2018-03-26T17:28:24.511Z,0.50
2018-03-26T17:30:28.461Z,0.52
2018-03-26T17:32:31.642Z,1.10
2018-03-26T17:34:35.596Z,0.93
2018-03-26T17:36:38.778Z,0.90
2018-03-26T17:38:42.734Z,2.20
2018-03-26T17:40:45.918Z,2.50
2018-03-26T17:42:49.909Z,2.00
2018-03-26T17:44:53.080Z,1.60
2018-03-26T17:46:56.270Z,2.60
2018-03-26T17:48:59.601Z,3.40
2018-03-26T17:51:02.784Z,5.40
2018-03-26T17:53:06.752Z,2.90
2018-03-26T17:55:10.019Z,1.43
2018-03-26T17:57:13.242Z,1.10
2018-03-26T17:59:16.450Z,0.90
2018-03-26T18:01:20.071Z,1.23
2018-03-26T18:03:23.253Z,1.10
2018-03-26T18:05:27.803Z,1.27
2018-03-26T18:07:31.881Z,1.50
2018-03-26T18:09:36.447Z,1.20
2018-03-26T18:11:40.592Z,1.23
2018-03-26T18:13:43.777Z,1.33
2018-03-26T18:15:47.000Z,1.17
2018-03-26T18:17:50.195Z,1.92
2018-03-26T18:19:53.382Z,3.87
2018-03-26T18:21:56.769Z,1.50
2018-03-26T18:24:00.243Z,1.87
2018-03-26T18:26:04.422Z,2.60
2018-03-26T18:28:07.620Z,1.53
2018-03-26T18:30:10.810Z,1.42
2018-03-26T18:32:15.966Z,1.20
2018-03-26T18:34:19.228Z,9.83
2018-03-26T18:36:22.400Z,1.87
2018-03-26T18:38:25.609Z,1.65
2018-03-26T18:40:28.777Z,1.50
2018-03-26T18:42:32.155Z,1.50
2018-03-26T18:44:36.244Z,1.20
2018-03-26T18:46:40.221Z,1.00
2018-03-26T18:48:43.668Z,1.08
2018-03-26T18:50:47.924Z,1.23
2018-03-26T18:52:52.074Z,4.60
2018-03-26T18:54:57.153Z,2.00
2018-03-26T18:57:00.960Z,1.10
2018-03-26T18:59:04.144Z,0.80
2018-03-26T19:01:07.778Z,1.20
2018-03-26T19:03:10.962Z,2.53
2018-03-26T19:05:15.086Z,1.20
2018-03-26T19:07:18.679Z,1.00
2018-03-26T19:09:21.900Z,1.00
2018-03-26T19:11:25.072Z,1.00
2018-03-26T19:13:28.245Z,1.10
2018-03-26T19:15:31.417Z,1.20
2018-03-26T19:17:34.589Z,1.27
2018-03-26T19:19:37.772Z,1.80
2018-03-26T19:21:40.960Z,3.07
2018-03-26T19:23:45.164Z,1.53
2018-03-26T19:25:49.846Z,1.40
2018-03-26T19:27:53.018Z,1.13
2018-03-26T19:29:56.572Z,1.07
2018-03-26T19:31:59.999Z,0.90
2018-03-26T19:34:03.164Z,1.20
2018-03-26T19:36:06.345Z,1.25
2018-03-26T19:38:09.526Z,1.60
2018-03-26T19:40:12.763Z,1.23
2018-03-26T19:42:15.936Z,1.52
2018-03-26T19:44:19.112Z,1.53
2018-03-26T19:46:23.059Z,1.13
2018-03-26T19:48:27.010Z,1.20
2018-03-26T19:50:30.215Z,1.17
2018-03-26T19:52:33.429Z,1.10
2018-03-26T19:54:37.343Z,1.10
2018-03-26T19:56:40.835Z,1.40
2018-03-26T19:58:44.159Z,1.35
2018-03-26T20:00:47.333Z,1.50
2018-03-26T20:02:50.510Z,2.43
2018-03-26T20:04:53.684Z,2.03
2018-03-26T20:06:56.854Z,2.20
2018-03-26T20:09:00.885Z,2.40
2018-03-26T20:11:04.833Z,2.20
2018-03-26T20:13:08.246Z,1.87
2018-03-26T20:15:11.500Z,1.47
2018-03-26T20:17:14.687Z,2.07
2018-03-26T20:19:17.932Z,1.83
2018-03-26T20:21:21.592Z,1.75
2018-03-26T20:23:25.514Z,2.03
2018-03-26T20:25:29.459Z,2.00
2018-03-26T20:27:32.629Z,1.70
2018-03-26T20:29:36.649Z,2.40
2018-03-26T20:31:39.801Z,1.40
2018-03-26T20:33:42.954Z,2.00
2018-03-26T20:35:46.161Z,1.80
2018-03-26T20:37:49.355Z,1.50
2018-03-26T20:39:52.496Z,2.07
2018-03-26T20:41:57.258Z,9.27
2018-03-26T20:44:00.467Z,3.13
2018-03-26T20:46:03.604Z,2.30
2018-03-26T20:48:06.788Z,2.42
2018-03-26T20:50:10.691Z,4.10
2018-03-26T20:52:15.342Z,1.98
2018-03-26T20:54:19.336Z,1.85
2018-03-26T20:56:22.497Z,2.30
2018-03-26T20:58:26.396Z,2.20
2018-03-26T21:00:30.372Z,2.08
2018-03-26T21:02:33.495Z,1.95
2018-03-26T21:04:36.699Z,2.10
2018-03-26T21:06:39.839Z,2.30
2018-03-26T21:08:42.985Z,2.83
2018-03-26T21:10:46.151Z,3.50
2018-03-26T21:12:49.410Z,3.30
2018-03-26T21:14:52.557Z,3.00
2018-03-26T21:16:55.728Z,2.57
2018-03-26T21:18:58.874Z,2.20
2018-03-26T21:21:03.158Z,2.00
2018-03-26T21:23:06.320Z,1.93
2018-03-26T21:25:09.476Z,1.80
2018-03-26T21:27:12.645Z,2.00
2018-03-26T21:29:15.781Z,2.13
2018-03-26T21:31:19.678Z,1.80
2018-03-26T21:33:23.360Z,1.70
2018-03-26T21:35:26.513Z,2.27
2018-03-26T21:37:30.498Z,2.10
2018-03-26T21:39:33.676Z,2.27
2018-03-26T21:41:37.720Z,1.83
2018-03-26T21:43:40.892Z,2.40
2018-03-26T21:45:44.078Z,1.90
2018-03-26T21:47:47.551Z,1.97
2018-03-26T21:49:50.692Z,2.42
2018-03-26T21:51:53.862Z,2.37
2018-03-26T21:53:57.000Z,2.13
2018-03-26T21:56:00.160Z,2.27
2018-03-26T21:58:04.029Z,2.12
2018-03-26T22:00:17.790Z,2.10
2018-03-26T22:02:20.946Z,2.20
2018-03-26T22:04:25.063Z,1.90
2018-03-26T22:06:28.979Z,2.62
2018-03-26T22:08:33.153Z,2.20
2018-03-26T22:10:36.294Z,2.50
2018-03-26T22:12:39.436Z,2.30
2018-03-26T22:14:44.486Z,2.80
2018-03-26T22:16:48.386Z,2.60
2018-03-26T22:18:52.324Z,2.97
2018-03-26T22:20:56.246Z,2.60
2018-03-26T22:23:00.165Z,2.90
2018-03-26T22:25:03.550Z,2.40
2018-03-26T22:27:06.685Z,2.83
2018-03-26T22:29:09.824Z,2.60
2018-03-26T22:31:12.996Z,2.90
2018-03-26T22:33:16.941Z,2.33
2018-03-26T22:35:20.854Z,2.45
2018-03-26T22:37:25.126Z,2.47
2018-03-26T22:39:28.296Z,2.30
2018-03-26T22:41:31.467Z,2.83
2018-03-26T22:43:34.608Z,2.27
2018-03-26T22:45:37.756Z,2.47
2018-03-26T22:47:40.929Z,2.70
2018-03-26T22:49:45.951Z,2.27
2018-03-26T22:51:49.112Z,2.67
2018-03-26T22:53:52.297Z,2.25
2018-03-26T22:55:56.242Z,2.40
2018-03-26T22:57:59.403Z,2.40
2018-03-26T23:00:02.545Z,2.53
2018-03-26T23:02:06.285Z,2.15
2018-03-26T23:04:09.449Z,2.40
2018-03-26T23:06:14.094Z,2.80
2018-03-26T23:08:17.264Z,2.73
2018-03-26T23:10:20.408Z,2.53
2018-03-26T23:12:23.547Z,2.80
2018-03-26T23:14:27.493Z,2.70
2018-03-26T23:16:30.661Z,3.13
2018-03-26T23:18:33.837Z,3.60
2018-03-26T23:20:37.017Z,3.10
2018-03-26T23:22:47.651Z,2.63
2018-03-26T23:24:50.933Z,3.15
2018-03-26T23:26:54.088Z,3.17
2018-03-26T23:28:57.996Z,2.70
2018-03-26T23:31:01.158Z,2.63
2018-03-26T23:33:04.298Z,3.25
2018-03-26T23:35:07.471Z,3.10
2018-03-26T23:37:10.608Z,3.20
2018-03-26T23:39:13.748Z,2.80
2018-03-26T23:41:17.686Z,3.28
2018-03-26T23:43:21.331Z,2.90
2018-03-26T23:45:24.473Z,2.93
2018-03-26T23:47:27.641Z,2.93
2018-03-26T23:49:30.772Z,2.87
2018-03-26T23:51:33.952Z,2.93
2018-03-26T23:53:37.125Z,2.97
2018-03-26T23:55:41.044Z,2.93
2018-03-26T23:57:44.216Z,3.70
2018-03-26T23:59:47.690Z,3.37
